createdAt,value
2022-12-02T00:02:27.355Z,18.92
2022-12-02T00:05:02.035Z,18.15
2022-12-02T00:07:29.240Z,19.73
2022-12-02T00:09:56.962Z,20.48
2022-12-02T00:12:27.079Z,19.77
2022-12-02T00:15:01.471Z,20.98
2022-12-02T00:17:28.540Z,20.15
2022-12-02T00:19:55.920Z,19.67
2022-12-02T00:22:23.022Z,19.95
2022-12-02T00:24:50.796Z,20.38
2022-12-02T00:27:18.131Z,20.05
2022-12-02T00:29:45.468Z,19.08
2022-12-02T00:32:12.550Z,18.02
2022-12-02T00:34:40.133Z,19.38
2022-12-02T00:37:07.195Z,19.48
2022-12-02T00:39:34.553Z,19.73
2022-12-02T00:42:01.629Z,17.90
2022-12-02T00:44:47.564Z,17.75
2022-12-02T00:47:14.807Z,17.30
2022-12-02T00:49:42.119Z,17.23
2022-12-02T00:52:09.356Z,17.48
2022-12-02T00:54:36.754Z,17.40
2022-12-02T00:57:04.031Z,17.20
2022-12-02T00:59:31.359Z,16.45
2022-12-02T01:01:58.585Z,17.65
2022-12-02T01:04:26.165Z,17.67
2022-12-02T01:06:53.288Z,18.05
2022-12-02T01:09:20.604Z,16.42
2022-12-02T01:11:47.748Z,17.13
2022-12-02T01:14:15.152Z,17.55
2022-12-02T01:16:42.370Z,17.85
2022-12-02T01:19:09.874Z,16.08
2022-12-02T01:21:37.827Z,16.35
2022-12-02T01:24:05.508Z,16.33
2022-12-02T01:26:32.682Z,17.75
2022-12-02T01:29:00.383Z,17.38
2022-12-02T01:31:27.490Z,17.65
2022-12-02T01:33:54.899Z,16.17
2022-12-02T01:36:22.056Z,15.88
2022-12-02T01:38:49.457Z,15.95
2022-12-02T01:41:16.636Z,15.45
2022-12-02T01:43:44.139Z,16.80
2022-12-02T01:46:11.924Z,14.13
2022-12-02T01:48:39.394Z,16.25
2022-12-02T01:51:07.281Z,16.58
2022-12-02T01:53:36.392Z,16.42
2022-12-02T01:56:03.548Z,17.23
2022-12-02T01:58:33.197Z,14.85
2022-12-02T02:01:00.347Z,16.05
2022-12-02T02:03:27.853Z,16.45
2022-12-02T02:05:55.428Z,16.98
2022-12-02T02:08:23.459Z,17.33
2022-12-02T02:10:50.646Z,15.77
2022-12-02T02:13:18.190Z,16.92
2022-12-02T02:15:46.487Z,16.35
2022-12-02T02:18:16.522Z,17.27
2022-12-02T02:20:43.766Z,17.83
2022-12-02T02:23:21.375Z,17.55
2022-12-02T02:25:52.661Z,17.67
2022-12-02T02:28:24.668Z,17.00
2022-12-02T02:30:55.086Z,17.48
2022-12-02T02:33:27.585Z,18.15
2022-12-02T02:35:56.427Z,18.83
2022-12-02T02:38:26.858Z,17.27
2022-12-02T02:40:56.713Z,16.05
2022-12-02T02:43:27.596Z,17.48
2022-12-02T02:45:56.861Z,16.98
2022-12-02T02:48:28.169Z,17.35
2022-12-02T02:50:56.663Z,16.20
2022-12-02T02:53:26.809Z,18.00
2022-12-02T02:55:56.413Z,18.63
2022-12-02T02:58:26.787Z,17.40
2022-12-02T03:01:02.451Z,18.45
2022-12-02T03:03:34.625Z,17.35
2022-12-02T03:06:04.728Z,18.85
2022-12-02T03:08:33.757Z,17.75
2022-12-02T03:11:02.400Z,16.48
2022-12-02T03:13:32.948Z,16.98
2022-12-02T03:16:03.220Z,17.27
2022-12-02T03:18:31.033Z,17.70
2022-12-02T03:20:59.171Z,16.50
2022-12-02T03:23:27.149Z,15.98
2022-12-02T03:25:54.730Z,15.65
2022-12-02T03:28:22.920Z,16.92
2022-12-02T03:30:51.852Z,16.55
2022-12-02T03:33:19.564Z,16.65
2022-12-02T03:35:46.966Z,15.30
2022-12-02T03:38:14.761Z,16.17
2022-12-02T03:40:41.996Z,16.65
2022-12-02T03:43:09.556Z,16.08
2022-12-02T03:45:36.815Z,17.20
2022-12-02T03:48:06.056Z,15.80
2022-12-02T03:50:33.197Z,15.52
2022-12-02T03:53:00.659Z,16.85
2022-12-02T03:55:28.952Z,15.88
2022-12-02T03:58:03.198Z,16.05
2022-12-02T04:00:30.454Z,15.85
2022-12-02T04:02:58.234Z,16.48
2022-12-02T04:05:25.417Z,15.57
2022-12-02T04:07:52.925Z,16.25
2022-12-02T04:10:19.999Z,16.02
2022-12-02T04:12:47.759Z,16.25
2022-12-02T04:15:15.015Z,14.95
2022-12-02T04:17:42.445Z,16.23
2022-12-02T04:20:10.227Z,15.18
2022-12-02T04:22:37.565Z,14.88
2022-12-02T04:25:05.194Z,14.65
2022-12-02T04:27:32.702Z,15.60
2022-12-02T04:29:59.888Z,15.10
2022-12-02T04:32:27.192Z,15.70
2022-12-02T04:34:54.378Z,14.73
2022-12-02T04:37:21.932Z,14.05
2022-12-02T04:39:48.983Z,14.90
2022-12-02T04:42:16.441Z,14.27
2022-12-02T04:44:43.508Z,14.73
2022-12-02T04:47:10.986Z,14.75
2022-12-02T04:49:38.395Z,15.43
2022-12-02T04:52:05.833Z,13.88
2022-12-02T04:54:32.914Z,15.63
2022-12-02T04:57:00.268Z,14.35
2022-12-02T04:59:27.595Z,16.05
2022-12-02T05:01:55.003Z,15.18
2022-12-02T05:04:22.264Z,15.40
2022-12-02T05:06:49.746Z,14.50
2022-12-02T05:09:16.917Z,14.48
2022-12-02T05:11:44.326Z,14.25
2022-12-02T05:14:11.434Z,14.68
2022-12-02T05:16:39.055Z,14.63
2022-12-02T05:19:06.168Z,15.20
2022-12-02T05:21:33.540Z,14.98
2022-12-02T05:24:00.673Z,15.05
2022-12-02T05:26:28.297Z,14.15
2022-12-02T05:28:55.425Z,14.93
2022-12-02T05:31:22.876Z,14.52
2022-12-02T05:33:50.190Z,14.15
2022-12-02T05:36:17.629Z,14.05
2022-12-02T05:38:45.182Z,14.00
2022-12-02T05:41:12.541Z,14.77
2022-12-02T05:43:42.234Z,14.68
2022-12-02T05:46:20.903Z,14.32
2022-12-02T05:48:49.922Z,13.88
2022-12-02T05:51:22.321Z,12.80
2022-12-02T05:53:51.089Z,13.35
2022-12-02T05:56:26.641Z,13.70
2022-12-02T05:58:53.918Z,14.30
2022-12-02T06:01:30.139Z,14.68
2022-12-02T06:03:59.148Z,14.23
2022-12-02T06:06:30.831Z,12.85
2022-12-02T06:08:58.008Z,13.65
2022-12-02T06:11:30.085Z,13.70
2022-12-02T06:14:03.247Z,14.18
2022-12-02T06:16:31.874Z,12.88
2022-12-02T06:19:08.399Z,12.88
2022-12-02T06:21:35.878Z,14.05
2022-12-02T06:24:03.140Z,14.00
2022-12-02T06:26:30.560Z,14.00
2022-12-02T06:29:02.144Z,13.88
2022-12-02T06:31:39.435Z,13.88
2022-12-02T06:34:33.772Z,13.48
2022-12-02T06:37:10.772Z,13.13
2022-12-02T06:39:48.215Z,14.57
2022-12-02T06:42:32.719Z,13.52
2022-12-02T06:45:15.258Z,14.32
2022-12-02T06:47:42.711Z,14.00
2022-12-02T06:50:29.744Z,16.48
2022-12-02T06:53:25.935Z,15.73
2022-12-02T06:55:58.569Z,12.73
2022-12-02T06:58:37.637Z,14.98
2022-12-02T07:01:28.107Z,13.23
2022-12-02T07:03:56.351Z,14.95
2022-12-02T07:06:28.895Z,14.73
2022-12-02T07:09:18.284Z,14.18
2022-12-02T07:11:55.528Z,15.13
2022-12-02T07:14:27.623Z,14.35
2022-12-02T07:16:57.084Z,14.82
2022-12-02T07:19:32.285Z,13.48
2022-12-02T07:21:59.406Z,13.95
2022-12-02T07:24:28.218Z,13.07
2022-12-02T07:26:55.357Z,14.00
2022-12-02T07:29:31.122Z,13.15
2022-12-02T07:31:58.319Z,14.85
2022-12-02T07:34:30.988Z,12.90
2022-12-02T07:37:01.080Z,14.18
2022-12-02T07:39:28.603Z,15.05
2022-12-02T07:41:55.640Z,14.52
2022-12-02T07:44:23.036Z,14.05
2022-12-02T07:46:50.176Z,13.43
2022-12-02T07:49:17.640Z,14.57
2022-12-02T07:51:44.752Z,14.63
2022-12-02T07:54:12.402Z,14.77
2022-12-02T07:56:39.550Z,13.57
2022-12-02T07:59:12.512Z,15.73
2022-12-02T08:01:40.887Z,14.52
2022-12-02T08:04:08.917Z,14.02
2022-12-02T08:06:39.709Z,14.20
2022-12-02T08:09:09.484Z,15.40
2022-12-02T08:11:37.118Z,15.40
2022-12-02T08:14:05.097Z,14.88
2022-12-02T08:16:32.286Z,14.45
2022-12-02T08:19:01.247Z,20.58
2022-12-02T08:21:29.092Z,15.70
2022-12-02T08:23:56.573Z,15.93
2022-12-02T08:26:23.770Z,13.52
2022-12-02T08:28:54.146Z,15.57
2022-12-02T08:31:22.113Z,15.50
2022-12-02T08:33:50.699Z,13.30
2022-12-02T08:36:18.291Z,15.20
2022-12-02T08:38:45.953Z,14.90
2022-12-02T08:41:14.426Z,16.60
2022-12-02T08:43:42.840Z,15.75
2022-12-02T08:46:10.602Z,15.48
2022-12-02T08:48:38.341Z,15.73
2022-12-02T08:51:05.984Z,15.32
2022-12-02T08:53:33.403Z,15.70
2022-12-02T08:56:00.599Z,14.43
2022-12-02T08:58:28.089Z,15.35
2022-12-02T09:00:55.525Z,16.48
2022-12-02T09:03:22.921Z,16.38
2022-12-02T09:05:50.030Z,17.73
2022-12-02T09:08:17.379Z,16.67
2022-12-02T09:10:44.548Z,15.75
2022-12-02T09:13:11.970Z,16.38
2022-12-02T09:15:39.158Z,16.55
2022-12-02T09:18:09.805Z,17.02
2022-12-02T09:20:41.132Z,17.55
2022-12-02T09:23:08.666Z,18.50
2022-12-02T09:25:35.835Z,17.27
2022-12-02T09:28:03.222Z,17.05
2022-12-02T09:30:30.341Z,16.15
2022-12-02T09:32:57.824Z,18.00
2022-12-02T09:35:24.901Z,17.23
2022-12-02T09:37:52.596Z,18.45
2022-12-02T09:40:20.361Z,18.55
2022-12-02T09:42:47.955Z,17.23
2022-12-02T09:45:17.277Z,18.15
2022-12-02T09:47:44.704Z,18.55
2022-12-02T09:50:14.795Z,18.98
2022-12-02T09:52:43.170Z,25.25
2022-12-02T09:55:20.829Z,18.58
2022-12-02T09:57:48.336Z,19.88
2022-12-02T10:00:19.385Z,17.25
2022-12-02T10:02:52.197Z,19.20
2022-12-02T10:05:27.692Z,17.73
2022-12-02T10:07:58.681Z,17.90
2022-12-02T10:10:40.141Z,18.40
2022-12-02T10:13:13.774Z,16.70
2022-12-02T10:15:42.077Z,16.63
2022-12-02T10:18:22.652Z,17.83
2022-12-02T10:20:50.549Z,18.02
2022-12-02T10:23:20.726Z,19.48
2022-12-02T10:25:55.581Z,16.90
2022-12-02T10:28:28.730Z,17.23
2022-12-02T10:31:10.298Z,17.33
2022-12-02T10:33:51.968Z,18.52
2022-12-02T10:36:45.540Z,18.15
2022-12-02T10:39:22.394Z,18.23
2022-12-02T10:42:04.517Z,18.45
2022-12-02T10:44:34.527Z,17.73
2022-12-02T10:47:17.479Z,16.10
2022-12-02T10:49:58.435Z,18.95
2022-12-02T10:52:44.641Z,17.90
2022-12-02T10:55:13.038Z,17.65
2022-12-02T10:57:43.411Z,18.00
2022-12-02T11:00:26.382Z,18.77
2022-12-02T11:03:03.896Z,17.80
2022-12-02T11:05:33.580Z,18.50
2022-12-02T11:08:02.068Z,18.15
2022-12-02T11:10:40.754Z,16.65
2022-12-02T11:13:27.875Z,18.83
2022-12-02T11:15:55.295Z,16.83
2022-12-02T11:18:25.987Z,17.65
2022-12-02T11:21:03.322Z,19.48
2022-12-02T11:23:32.310Z,17.45
2022-12-02T11:26:05.718Z,18.05
2022-12-02T11:28:35.176Z,18.85
2022-12-02T11:31:12.241Z,17.33
2022-12-02T11:33:53.076Z,18.40
2022-12-02T11:36:24.422Z,19.73
2022-12-02T11:38:51.641Z,20.30
2022-12-02T11:41:22.567Z,18.83
2022-12-02T11:44:08.230Z,18.33
2022-12-02T11:46:43.224Z,19.27
2022-12-02T11:49:40.560Z,18.17
2022-12-02T11:52:11.948Z,17.95
2022-12-02T11:54:41.464Z,20.23
2022-12-02T11:57:18.570Z,18.40
2022-12-02T12:02:19.046Z,17.45
2022-12-02T12:04:59.908Z,19.13
2022-12-02T12:07:48.989Z,19.83
2022-12-02T12:10:25.500Z,20.77
2022-12-02T12:13:12.142Z,20.40
2022-12-02T12:15:56.247Z,21.52
2022-12-02T12:18:42.193Z,19.88
2022-12-02T12:21:09.953Z,21.02
2022-12-02T12:23:45.659Z,20.08
2022-12-02T12:26:34.926Z,20.05
2022-12-02T12:29:05.048Z,19.13
2022-12-02T12:31:37.811Z,19.65
2022-12-02T12:34:07.555Z,19.83
2022-12-02T12:36:35.413Z,20.30
2022-12-02T12:39:03.821Z,18.17
2022-12-02T12:41:58.621Z,18.17
2022-12-02T12:46:45.405Z,18.75
2022-12-02T12:49:14.046Z,20.45
2022-12-02T12:51:41.138Z,19.63
2022-12-02T12:54:08.527Z,20.73
2022-12-02T12:56:35.677Z,20.65
2022-12-02T12:59:03.188Z,19.88
2022-12-02T13:01:30.376Z,20.35
2022-12-02T13:03:58.435Z,20.77
2022-12-02T13:06:25.529Z,19.88
2022-12-02T13:08:53.061Z,19.65
2022-12-02T13:11:20.100Z,19.70
2022-12-02T13:13:47.559Z,19.20
2022-12-02T13:16:14.686Z,20.48
2022-12-02T13:18:42.207Z,20.60
2022-12-02T13:21:09.965Z,21.27
2022-12-02T13:23:37.380Z,20.48
2022-12-02T13:26:04.490Z,18.73
2022-12-02T13:28:31.804Z,22.02
2022-12-02T13:30:59.165Z,21.63
2022-12-02T13:33:26.613Z,22.02
2022-12-02T13:35:54.780Z,21.48
2022-12-02T13:38:22.271Z,24.48
2022-12-02T13:40:52.333Z,22.10
2022-12-02T13:43:19.902Z,21.33
2022-12-02T13:45:47.101Z,20.65
2022-12-02T13:48:14.693Z,21.48
2022-12-02T13:50:41.750Z,19.98
2022-12-02T13:53:09.219Z,20.58
2022-12-02T13:55:36.513Z,20.45
2022-12-02T13:58:03.872Z,20.60
2022-12-02T14:00:31.032Z,22.52
2022-12-02T14:02:58.632Z,21.63
2022-12-02T14:05:25.887Z,21.27
2022-12-02T14:07:53.302Z,19.42
2022-12-02T14:10:20.540Z,18.40
2022-12-02T14:12:48.025Z,19.98
2022-12-02T14:15:15.224Z,18.80
2022-12-02T14:17:42.619Z,18.98
2022-12-02T14:20:10.189Z,19.75
2022-12-02T14:22:37.650Z,19.23
2022-12-02T14:25:05.016Z,16.98
2022-12-02T14:27:32.806Z,16.55
2022-12-02T14:29:59.899Z,19.98
2022-12-02T14:32:27.378Z,19.65
2022-12-02T14:34:54.689Z,17.75
2022-12-02T14:37:22.234Z,20.38
2022-12-02T14:39:49.406Z,20.55
2022-12-02T14:42:16.996Z,21.42
2022-12-02T14:44:44.106Z,22.90
2022-12-02T14:47:11.752Z,19.33
2022-12-02T14:49:40.681Z,19.83
2022-12-02T14:52:09.119Z,21.55
2022-12-02T14:54:36.271Z,19.23
2022-12-02T14:57:05.667Z,20.42
2022-12-02T14:59:32.934Z,20.08
2022-12-02T15:02:00.627Z,21.17
2022-12-02T15:04:28.713Z,19.17
2022-12-02T15:06:56.565Z,19.70
2022-12-02T15:09:23.859Z,21.73
2022-12-02T15:11:52.225Z,22.85
2022-12-02T15:14:20.676Z,20.77
2022-12-02T15:16:48.286Z,21.30
2022-12-02T15:19:15.557Z,20.05
2022-12-02T15:21:43.397Z,20.17
2022-12-02T15:24:10.491Z,21.90
2022-12-02T15:26:38.196Z,21.20
2022-12-02T15:29:05.369Z,21.33
2022-12-02T15:31:32.873Z,24.23
2022-12-02T15:33:59.980Z,22.30
2022-12-02T15:36:27.681Z,21.77
2022-12-02T15:38:55.018Z,22.08
2022-12-02T15:41:22.502Z,22.73
2022-12-02T15:43:53.485Z,22.40
2022-12-02T15:46:23.700Z,22.75
2022-12-02T15:48:51.339Z,20.90
2022-12-02T15:51:19.223Z,20.23
2022-12-02T15:53:46.474Z,20.55
2022-12-02T15:56:14.784Z,22.65
2022-12-02T15:58:42.114Z,21.77
2022-12-02T16:01:09.732Z,20.40
2022-12-02T16:03:36.974Z,19.88
2022-12-02T16:06:04.636Z,20.55
2022-12-02T16:08:33.200Z,19.77
2022-12-02T16:11:00.632Z,22.17
2022-12-02T16:13:27.723Z,21.75
2022-12-02T16:15:55.155Z,20.63
2022-12-02T16:18:22.261Z,19.90
2022-12-02T16:20:55.332Z,20.25
2022-12-02T16:23:23.395Z,19.50
2022-12-02T16:25:50.799Z,20.75
2022-12-02T16:28:17.960Z,21.48
2022-12-02T16:30:45.506Z,21.92
2022-12-02T16:33:12.621Z,23.73
2022-12-02T16:35:40.087Z,21.85
2022-12-02T16:38:07.214Z,19.58
2022-12-02T16:40:34.568Z,20.48
2022-12-02T16:43:02.195Z,20.65
2022-12-02T16:45:29.953Z,21.45
2022-12-02T16:47:57.169Z,21.63
2022-12-02T16:50:24.563Z,21.75
2022-12-02T16:52:51.797Z,20.33
2022-12-02T16:55:19.141Z,19.77
2022-12-02T16:57:46.252Z,21.63
2022-12-02T17:00:14.088Z,20.58
2022-12-02T17:02:42.987Z,21.67
2022-12-02T17:05:10.902Z,22.40
2022-12-02T17:07:38.387Z,19.65
2022-12-02T17:10:06.317Z,22.05
2022-12-02T17:12:33.425Z,23.02
2022-12-02T17:15:01.325Z,24.67
2022-12-02T17:17:45.288Z,23.30
2022-12-02T17:20:14.433Z,23.15
2022-12-02T17:22:43.666Z,23.55
2022-12-02T17:25:12.964Z,22.48
2022-12-02T17:27:40.872Z,22.70
2022-12-02T17:30:10.201Z,22.65
2022-12-02T17:32:37.394Z,22.63
2022-12-02T17:35:05.346Z,22.98
2022-12-02T17:37:32.540Z,25.05
2022-12-02T17:39:59.937Z,22.45
2022-12-02T17:42:27.030Z,22.10
2022-12-02T17:44:54.822Z,23.52
2022-12-02T17:47:22.234Z,24.83
2022-12-02T17:49:49.662Z,24.00
2022-12-02T17:52:21.147Z,22.35
2022-12-02T17:54:49.749Z,23.77
2022-12-02T17:57:17.194Z,24.63
2022-12-02T17:59:44.576Z,23.58
2022-12-02T18:02:11.791Z,24.15
2022-12-02T18:04:44.586Z,23.60
2022-12-02T18:07:12.844Z,23.27
2022-12-02T18:09:40.754Z,22.73
2022-12-02T18:12:08.347Z,23.20
2022-12-02T18:14:36.386Z,22.63
2022-12-02T18:17:06.443Z,23.38
2022-12-02T18:19:33.952Z,24.15
2022-12-02T18:22:01.589Z,22.40
2022-12-02T18:24:29.242Z,21.85
2022-12-02T18:26:56.372Z,23.13
2022-12-02T18:29:23.939Z,23.27
2022-12-02T18:31:51.089Z,23.58
2022-12-02T18:34:18.568Z,24.52
2022-12-02T18:36:45.810Z,23.08
2022-12-02T18:39:13.338Z,24.05
2022-12-02T18:41:40.583Z,24.70
2022-12-02T18:44:07.907Z,26.38
2022-12-02T18:46:35.415Z,27.00
2022-12-02T18:49:02.944Z,24.20
2022-12-02T18:51:30.049Z,23.90
2022-12-02T18:53:57.468Z,25.15
2022-12-02T18:56:24.924Z,26.63
2022-12-02T18:58:54.346Z,25.42
2022-12-02T19:01:22.095Z,23.05
2022-12-02T19:03:49.791Z,26.58
2022-12-02T19:06:17.443Z,27.75
2022-12-02T19:08:44.786Z,27.48
2022-12-02T19:11:11.991Z,25.77
2022-12-02T19:13:39.678Z,25.05
2022-12-02T19:16:07.090Z,26.08
2022-12-02T19:18:34.632Z,26.05
2022-12-02T19:21:04.527Z,27.08
2022-12-02T19:23:32.017Z,25.50
2022-12-02T19:25:59.068Z,25.52
2022-12-02T19:28:26.388Z,24.30
2022-12-02T19:30:53.694Z,23.42
2022-12-02T19:33:21.239Z,24.80
2022-12-02T19:35:48.558Z,25.52
2022-12-02T19:38:16.155Z,25.10
2022-12-02T19:40:45.364Z,24.67
2022-12-02T19:43:16.558Z,26.90
2022-12-02T19:45:44.244Z,24.27
2022-12-02T19:48:11.712Z,22.17
2022-12-02T19:50:38.874Z,23.83
2022-12-02T19:53:06.246Z,23.83
2022-12-02T19:55:33.553Z,25.38
2022-12-02T19:58:01.027Z,23.55
2022-12-02T20:00:28.065Z,24.20
2022-12-02T20:02:55.557Z,23.50
2022-12-02T20:05:22.865Z,22.02
2022-12-02T20:07:50.746Z,24.25
2022-12-02T20:10:18.540Z,23.02
2022-12-02T20:12:47.916Z,24.30
2022-12-02T20:15:15.803Z,22.05
2022-12-02T20:17:43.234Z,21.45
2022-12-02T20:20:13.175Z,22.08
2022-12-02T20:22:41.824Z,21.60
2022-12-02T20:25:10.340Z,21.45
2022-12-02T20:27:38.034Z,20.48
2022-12-02T20:30:06.679Z,22.55
2022-12-02T20:32:34.534Z,20.40
2022-12-02T20:35:02.080Z,20.30
2022-12-02T20:37:29.466Z,20.42
2022-12-02T20:39:56.594Z,21.13
2022-12-02T20:42:24.021Z,21.58
2022-12-02T20:44:53.220Z,21.40
2022-12-02T20:47:21.225Z,22.73
2022-12-02T20:49:48.728Z,19.88
2022-12-02T20:52:16.086Z,19.63
2022-12-02T20:54:43.371Z,21.52
2022-12-02T20:57:12.434Z,21.08
2022-12-02T20:59:41.760Z,21.42
2022-12-02T21:02:10.837Z,21.17
2022-12-02T21:04:38.721Z,19.88
2022-12-02T21:07:09.460Z,20.95
2022-12-02T21:09:39.342Z,20.73
2022-12-02T21:12:07.628Z,21.58
2022-12-02T21:14:35.198Z,22.33
2022-12-02T21:17:02.696Z,20.52
2022-12-02T21:19:29.744Z,18.52
2022-12-02T21:21:57.191Z,16.42
2022-12-02T21:24:24.304Z,18.20
2022-12-02T21:26:51.680Z,18.35
2022-12-02T21:29:18.808Z,19.52
2022-12-02T21:31:46.304Z,17.33
2022-12-02T21:34:13.500Z,17.50
2022-12-02T21:36:40.905Z,18.30
2022-12-02T21:39:07.997Z,22.02
2022-12-02T21:41:35.619Z,24.33
2022-12-02T21:44:02.742Z,23.45
2022-12-02T21:46:31.187Z,20.73
2022-12-02T21:48:58.280Z,23.92
2022-12-02T21:51:26.051Z,24.88
2022-12-02T21:53:53.146Z,25.35
2022-12-02T21:56:20.543Z,24.63
2022-12-02T21:58:47.576Z,22.65
2022-12-02T22:01:33.909Z,23.65
2022-12-02T22:04:01.082Z,21.73
2022-12-02T22:06:28.509Z,24.02
2022-12-02T22:08:55.803Z,22.50
2022-12-02T22:11:23.978Z,23.13
2022-12-02T22:13:51.186Z,21.45
2022-12-02T22:16:18.647Z,22.27
2022-12-02T22:18:45.779Z,20.95
2022-12-02T22:21:13.209Z,21.35
2022-12-02T22:23:40.301Z,21.20
2022-12-02T22:26:07.704Z,23.58
2022-12-02T22:28:34.814Z,21.80
2022-12-02T22:31:02.219Z,20.50
2022-12-02T22:33:33.396Z,20.20
2022-12-02T22:36:01.277Z,22.27
2022-12-02T22:38:28.449Z,21.67
2022-12-02T22:40:55.762Z,20.80
2022-12-02T22:43:22.815Z,21.42
2022-12-02T22:45:50.201Z,21.80
2022-12-02T22:48:17.368Z,21.45
2022-12-02T22:50:44.679Z,20.88
2022-12-02T22:53:12.174Z,20.17
2022-12-02T22:55:39.537Z,21.10
2022-12-02T22:58:06.631Z,19.90
2022-12-02T23:00:34.014Z,19.08
2022-12-02T23:03:01.212Z,19.40
2022-12-02T23:05:28.844Z,19.83
2022-12-02T23:07:55.969Z,21.05
2022-12-02T23:10:23.476Z,19.60
2022-12-02T23:12:50.569Z,19.95
2022-12-02T23:18:06.160Z,19.85
2022-12-02T23:20:34.047Z,18.85
2022-12-02T23:23:01.286Z,19.02
2022-12-02T23:25:28.686Z,18.50
2022-12-02T23:27:55.980Z,19.33
2022-12-02T23:30:28.508Z,19.10
2022-12-02T23:32:57.896Z,18.33
2022-12-02T23:35:26.337Z,19.50
2022-12-02T23:37:53.512Z,19.23
2022-12-02T23:40:21.139Z,19.00
2022-12-02T23:42:48.263Z,20.73
2022-12-02T23:45:15.895Z,19.67
2022-12-02T23:47:43.049Z,18.80
2022-12-02T23:50:11.109Z,20.55
2022-12-02T23:52:38.355Z,20.90
2022-12-02T23:55:06.334Z,18.67
2022-12-02T23:57:33.589Z,19.52
